New York, NY

11:00 AM EST on March 06, 2015 (GMT -0500)
Flatiron | Change Station
CLOSE
Current Station
Personal Weather Station
Location: New York, NY
Elevation: 207 ft
Nearby Weather Stations

Elev 207 ft 40.74 °N, 73.99 °W | Updated 9 seconds ago

Clear
Clear
23.4 °F
Feels Like 23 °F
N
1.8
Wind Variable Wind from NW
Gusts 2.5 mph

Today
High -- | Low -- °F
--% Chance of Precip.
Yesterday
High -- | Low -- °F
Precip. -- in
6:22 AM 5:52 PM
Full, 99% visible
Pressure 30.54 in
Visibility 9.0 miles
Clouds Clear
Windchill 23 °F
Dew Point -2 °F
Humidity 32%
Rainfall 0.00 in
Snow Depth Not available.
UV 4.0 out of 12
Pollen .60 out of 12
Air Quality Not available.
Flu Activity Not available.
METAR KNYC 061551Z AUTO VRB04KT 9SM CLR M07/M17 A3055 RMK AO2 SLP340 T10671167 $

More Conditions Fewer Conditions

Pressure 30.54 in
Visibility 9.0 miles
Clouds Clear
Windchill 23 °F
Dew Point -2 °F
Humidity 32%
Rainfall 0.00 in
Snow Depth Not available.
UV 4.0 out of 12
Pollen .60 out of 12
Air Quality Not available.
Flu Activity Not available.
METAR KNYC 061551Z AUTO VRB04KT 9SM CLR M07/M17 A3055 RMK AO2 SLP340 T10671167 $

More Conditions Fewer Conditions

10-Day Weather Forecast

Almanac

Astronomy

Mar. 06, 2015 Rise Set
Actual Time
Civil Twilight
Nautical Twilight
Astronomical Twilight
Moon
Length of Visible Light
Length of Day
Tomorrow will be .
, % of the Moon is Illuminated

Today's Extremes

State Highs State Lows

Community

WunderPhotos

Upload Photos

1,803,327 photos uploaded!

WunderBlogs® & News

Nearby

Air Quality

  Air Quality AQ Index Pollutant
Not available.

Snow Depth

Station Depth Elevation

Earthquake Activity

City Distance Mag. Time & Date
Minimum magnitude displayed is 2.5.

Coastal Water Temperatures

Place Temperature

Nearby Weather Stations